Sky View Manor, NJ

1:12 AM EST on December 06, 2016 (GMT -0500)
Glenwood Estates | | Change Station

Elev 66 ft 39.97 °N, 74.15 °W | Updated 468 days ago

Clear
Clear
86.7 °F
Feels Like 85 °F
N
1.1
Wind Variable Wind from SSW
Gusts 1.6 mph

Today
High -- | Low -- °F
--% Chance of Precip.
Yesterday
High -- | Low -- °F
Precip. -- in
Pressure 30.15 in
Visibility 10.0 miles
Clouds Clear
Heat Index 85 °F
Dew Point 57 °F
Humidity 36%
Rainfall in
Snow Depth Not available.
7:04 AM 4:31 PM
Waxing Crescent, 38% visible
METAR KMJX 060556Z AUTO 36003KT 10SM CLR M02/M03 A3013 RMK AO2 SLP208 6//// T10221028 11006 21022 53009 FZRANO PNO $
Pressure 30.15 in
Visibility 10.0 miles
Clouds Clear
Heat Index 85 °F
Dew Point 57 °F
Humidity 36%
Rainfall in
Snow Depth Not available.
7:04 AM 4:31 PM
Waxing Crescent, 38% visible
METAR KMJX 060556Z AUTO 36003KT 10SM CLR M02/M03 A3013 RMK AO2 SLP208 6//// T10221028 11006 21022 53009 FZRANO PNO $

10-Day Weather Forecast

Almanac

Astronomy

Dec. 06, 2016 Rise Set
Actual Time
Civil Twilight
Nautical Twilight
Astronomical Twilight
Moon
Length of Visible Light
Length of Day
Tomorrow will be .
, % of the Moon is Illuminated

Today's Extremes

State Highs State Lows

Community

WunderPhotos

Upload Photos

1,955,932 photos uploaded!

WunderBlog® & News

Nearby

Air Quality

  Air Quality AQ Index Pollutant
Not available.

Snow Depth

Station Depth Elevation

Earthquake Activity

City Distance Mag. Time & Date
Minimum magnitude displayed is 2.5.

Coastal Water Temperatures

Place Temperature

Stations

Nearby Weather Stations

Station Location Temp. Windchill Dew Point Humidity Wind Precip. Elev Updated Type
                   

Watches & Warnings

There are currently no watches in effect.